Time;durP1;ratioP1;P1;durP2;ratioP2;P2;SDS_P1;SDS_P2;PMS_P1;PMS_P2;Temp;Humidity;BMP_temperature;BMP_pressure;BME280_temperature;BME280_humidity;BME280_pressure;Samples;Min_cycle;Max_cycle;Signal;HPM_P1;HPM_P2
2023/03/14 00:01:16;;;;;;;8.00;2.22;;;;;;;12.55;65.39;98934.41;5117765;28;20048;-59
2023/03/14 00:03:44;;;;;;;4.82;1.80;;;;;;;12.52;65.25;98934.97;5115907;27;20052;-60
2023/03/14 00:06:15;;;;;;;3.75;1.52;;;;;;;12.55;65.48;98937.09;5109960;28;20099;-60
2023/03/14 00:08:44;;;;;;;4.40;1.65;;;;;;;12.53;65.31;98933.88;5117515;27;20075;-59
2023/03/14 00:11:13;;;;;;;6.22;1.70;;;;;;;12.53;65.13;98937.38;5123331;28;20043;-60
2023/03/14 00:13:42;;;;;;;8.23;2.42;;;;;;;12.52;65.43;98926.88;5118812;28;20135;-59
2023/03/14 00:16:11;;;;;;;6.85;1.77;;;;;;;12.51;65.31;98933.34;5119959;28;20044;-60
2023/03/14 00:18:40;;;;;;;5.93;1.83;;;;;;;12.50;65.19;98937.13;5112638;28;20040;-60
2023/03/14 00:21:10;;;;;;;6.05;1.60;;;;;;;12.48;64.78;98948.19;5117651;28;20424;-60
2023/03/14 00:23:41;;;;;;;7.22;1.92;;;;;;;12.49;64.98;98949.00;5118472;28;20035;-59
2023/03/14 00:26:10;;;;;;;6.88;1.90;;;;;;;12.48;64.75;98950.88;5115006;28;20048;-60
2023/03/14 00:28:38;;;;;;;5.07;1.63;;;;;;;12.48;64.52;98953.59;5115732;28;20131;-60
2023/03/14 00:31:08;;;;;;;9.00;2.08;;;;;;;12.46;64.57;98958.44;5114450;28;20509;-59
2023/03/14 00:33:36;;;;;;;6.82;1.75;;;;;;;12.44;64.41;98957.13;5119353;28;20035;-59
2023/03/14 00:36:08;;;;;;;5.38;2.03;;;;;;;12.41;64.60;98957.66;5120924;28;20043;-60
2023/03/14 00:38:37;;;;;;;8.68;1.83;;;;;;;12.42;64.22;98965.47;5115718;28;20040;-60
2023/03/14 00:41:08;;;;;;;4.35;1.20;;;;;;;12.42;63.27;98967.38;5121116;28;20135;-59
2023/03/14 00:43:36;;;;;;;6.18;1.90;;;;;;;12.41;63.26;98976.53;5112128;28;20123;-60
2023/03/14 00:46:04;;;;;;;8.80;2.72;;;;;;;12.38;63.23;98967.13;5115786;28;20107;-60
2023/03/14 00:48:32;;;;;;;7.78;1.50;;;;;;;12.35;62.94;98971.19;5115086;28;20043;-60
2023/03/14 00:51:00;;;;;;;4.05;1.33;;;;;;;12.33;62.39;98970.66;5118387;28;20083;-61
2023/03/14 00:53:28;;;;;;;7.55;1.73;;;;;;;12.32;62.53;98966.34;5117110;28;20082;-60
2023/03/14 00:55:56;;;;;;;15.48;2.47;;;;;;;12.32;62.85;98974.44;5121835;28;20472;-60
2023/03/14 00:58:25;;;;;;;6.68;1.63;;;;;;;12.32;62.93;98969.03;5113042;28;20067;-60
2023/03/14 01:00:52;;;;;;;5.35;1.38;;;;;;;12.31;62.77;98975.50;5103998;28;20075;-60
2023/03/14 01:03:20;;;;;;;5.22;2.08;;;;;;;12.30;62.97;98975.78;5106069;28;20062;-59
2023/03/14 01:05:48;;;;;;;8.48;1.70;;;;;;;12.29;63.16;98971.47;5105560;28;20492;-59
2023/03/14 01:08:15;;;;;;;7.18;1.92;;;;;;;12.28;63.02;98970.69;5118530;28;20634;-59
2023/03/14 01:10:43;;;;;;;6.35;1.58;;;;;;;12.28;63.14;98981.47;5113591;28;20071;-59
2023/03/14 01:13:11;;;;;;;5.70;1.63;;;;;;;12.27;62.91;98979.84;5113812;28;20094;-59
2023/03/14 01:15:40;;;;;;;9.35;2.38;;;;;;;12.25;63.13;98965.03;5104629;28;20071;-59
2023/03/14 01:18:08;;;;;;;4.68;1.60;;;;;;;12.26;63.23;98964.78;5110711;28;20119;-59
2023/03/14 01:20:38;;;;;;;5.50;2.00;;;;;;;12.25;63.39;98967.75;5103211;28;20193;-60
2023/03/14 01:23:05;;;;;;;5.95;1.58;;;;;;;12.24;63.41;98966.13;5103996;28;20048;-60
2023/03/14 01:25:33;;;;;;;6.05;1.48;;;;;;;12.23;63.80;98953.75;5118730;28;20043;-61
2023/03/14 01:28:01;;;;;;;5.40;1.60;;;;;;;12.23;63.69;98957.25;5115998;28;20047;-61
2023/03/14 01:30:28;;;;;;;5.25;1.85;;;;;;;12.23;63.25;98948.34;5112349;28;20695;-61
2023/03/14 01:32:57;;;;;;;4.45;1.35;;;;;;;12.20;63.02;98941.66;5121790;28;20057;-61
2023/03/14 01:35:25;;;;;;;3.78;1.42;;;;;;;12.20;63.27;98933.56;5105748;28;20138;-60
2023/03/14 01:37:53;;;;;;;5.32;1.73;;;;;;;12.23;63.59;98924.13;5122949;28;20050;-59
2023/03/14 01:40:21;;;;;;;7.10;1.75;;;;;;;12.21;63.67;98926.28;5122784;28;20561;-59
2023/03/14 01:42:55;;;;;;;6.07;1.52;;;;;;;12.20;63.08;98930.88;5123830;28;20069;-59
2023/03/14 01:46:13;;;;;;;5.82;1.52;;;;;;;12.18;63.18;98922.28;5117311;28;20071;-59
2023/03/14 01:48:48;;;;;;;5.60;1.30;;;;;;;12.19;63.44;98913.09;5090681;27;20035;-59
2023/03/14 01:51:21;;;;;;;7.90;1.65;;;;;;;12.15;63.66;98898.59;5125016;28;20075;-60
2023/03/14 01:53:51;;;;;;;4.63;1.85;;;;;;;12.19;63.48;98904.22;5126901;28;20054;-60
2023/03/14 01:56:20;;;;;;;9.27;2.95;;;;;;;12.18;63.45;98910.69;5118400;28;20039;-60
2023/03/14 01:58:51;;;;;;;3.78;1.60;;;;;;;12.13;63.44;98900.78;5126769;28;20067;-59
2023/03/14 02:01:22;;;;;;;6.15;1.90;;;;;;;12.15;63.29;98912.06;5125656;28;20575;-59
2023/03/14 02:03:55;;;;;;;5.60;2.25;;;;;;;12.16;63.32;98905.59;5115610;28;20504;-59
2023/03/14 02:06:27;;;;;;;5.85;2.33;;;;;;;12.15;63.48;98908.56;5126125;28;20044;-60
2023/03/14 02:08:55;;;;;;;3.55;1.80;;;;;;;12.14;63.49;98915.03;5113692;28;20086;-60
2023/03/14 02:11:29;;;;;;;7.80;2.38;;;;;;;12.13;63.62;98903.47;5113446;28;20433;-59
2023/03/14 02:14:00;;;;;;;9.95;2.55;;;;;;;12.13;63.76;98898.09;5121724;27;20053;-60
2023/03/14 02:16:27;;;;;;;8.25;1.90;;;;;;;12.13;63.77;98899.97;5125885;28;20415;-60
2023/03/14 02:18:57;;;;;;;8.85;2.30;;;;;;;12.13;63.81;98908.06;5121411;28;20039;-60
2023/03/14 02:21:37;;;;;;;5.30;1.65;;;;;;;12.12;63.54;98904.56;5122666;28;20044;-60
2023/03/14 02:24:10;;;;;;;6.60;1.55;;;;;;;12.11;63.89;98897.56;5124022;28;20082;-60
2023/03/14 02:26:42;;;;;;;5.97;1.52;;;;;;;12.10;63.90;98904.03;5123302;28;20429;-60
2023/03/14 02:29:12;;;;;;;6.78;3.10;;;;;;;12.10;63.97;98889.78;5114347;28;20062;-60
2023/03/14 02:31:40;;;;;;;4.85;1.60;;;;;;;12.07;64.11;98893.81;5123204;28;20071;-60
2023/03/14 02:34:07;;;;;;;6.95;1.50;;;;;;;12.07;64.19;98899.22;5113689;28;20241;-60
2023/03/14 02:36:35;;;;;;;4.40;1.50;;;;;;;12.07;64.27;98895.72;5120738;28;20130;-60
2023/03/14 02:39:12;;;;;;;4.78;1.50;;;;;;;12.06;64.35;98897.59;5123813;28;20047;-58
2023/03/14 02:41:39;;;;;;;4.72;1.70;;;;;;;12.04;64.46;98892.50;5124466;28;20050;-58
2023/03/14 02:44:07;;;;;;;5.40;1.55;;;;;;;12.03;64.29;98888.19;5119973;28;20488;-59
2023/03/14 02:46:36;;;;;;;7.82;1.60;;;;;;;12.02;64.46;98875.00;5120064;27;20047;-59
2023/03/14 02:49:08;;;;;;;7.63;1.90;;;;;;;12.01;64.47;98870.72;5121624;28;20169;-58
2023/03/14 02:51:36;;;;;;;7.57;1.73;;;;;;;12.00;64.30;98877.97;5110521;28;20082;-59
2023/03/14 02:54:04;;;;;;;6.43;2.10;;;;;;;12.01;64.39;98873.41;5117787;28;20044;-59
2023/03/14 02:56:32;;;;;;;6.32;1.42;;;;;;;12.00;64.73;98885.25;5114950;27;20050;-60
2023/03/14 02:59:02;;;;;;;6.70;1.52;;;;;;;11.99;64.47;98881.75;5117093;28;20039;-59
2023/03/14 03:01:30;;;;;;;5.10;1.63;;;;;;;11.97;64.99;98881.22;5123632;28;20107;-59
2023/03/14 03:03:59;;;;;;;8.00;2.50;;;;;;;11.98;64.44;98879.34;5122176;28;20051;-60
2023/03/14 03:06:27;;;;;;;4.72;1.33;;;;;;;11.96;65.04;98885.00;5115563;28;20417;-60
2023/03/14 03:08:55;;;;;;;5.25;1.63;;;;;;;11.96;64.83;98892.28;5115739;28;20083;-60
2023/03/14 03:11:23;;;;;;;5.85;1.65;;;;;;;11.96;64.91;98897.66;5121248;28;20115;-60
2023/03/14 03:13:50;;;;;;;8.05;2.00;;;;;;;11.93;65.04;98885.56;5125430;28;20047;-60
2023/03/14 03:16:18;;;;;;;4.75;1.38;;;;;;;11.95;64.86;98887.97;5123296;28;20123;-60
2023/03/14 03:18:46;;;;;;;7.60;1.98;;;;;;;11.91;65.08;98881.53;5119970;28;20048;-60
2023/03/14 03:21:15;;;;;;;7.50;2.47;;;;;;;11.92;65.09;98881.25;5114644;28;20087;-60
2023/03/14 03:23:43;;;;;;;6.90;2.42;;;;;;;11.91;64.80;98882.34;5116780;28;20047;-60
2023/03/14 03:26:11;;;;;;;7.25;1.67;;;;;;;11.90;65.13;98875.34;5123070;28;20065;-60
2023/03/14 03:28:39;;;;;;;5.60;1.70;;;;;;;11.89;64.92;98873.75;5116954;28;20056;-60
2023/03/14 03:31:10;;;;;;;9.35;2.58;;;;;;;11.88;64.97;98874.81;5120859;28;20075;-59
2023/03/14 03:33:38;;;;;;;5.20;1.90;;;;;;;11.89;64.89;98881.00;5116699;28;20044;-60
2023/03/14 03:36:07;;;;;;;7.55;1.92;;;;;;;11.88;65.14;98885.59;5116045;28;20067;-59
2023/03/14 03:38:37;;;;;;;7.57;1.90;;;;;;;11.88;65.00;98876.72;5109604;28;20074;-59
2023/03/14 03:41:06;;;;;;;5.90;2.00;;;;;;;11.88;65.12;98876.72;5114862;27;20104;-60
2023/03/14 03:43:34;;;;;;;5.35;1.63;;;;;;;11.88;64.91;98874.03;5109000;28;20126;-59
2023/03/14 03:46:04;;;;;;;7.32;2.05;;;;;;;11.86;65.05;98876.19;5105362;28;20058;-60
2023/03/14 03:48:32;;;;;;;6.43;1.90;;;;;;;11.87;64.69;98870.53;5117102;28;20048;-59
2023/03/14 03:51:00;;;;;;;9.40;2.28;;;;;;;11.86;64.94;98862.72;5115433;27;20054;-59
2023/03/14 03:53:27;;;;;;;8.88;1.80;;;;;;;11.86;64.62;98858.16;5120386;28;20051;-59
2023/03/14 03:56:01;;;;;;;7.05;1.90;;;;;;;11.86;65.01;98854.66;5120771;28;20504;-59
2023/03/14 03:58:29;;;;;;;9.13;1.85;;;;;;;11.86;64.63;98865.41;5123998;27;20051;-58
2023/03/14 04:00:57;;;;;;;7.03;1.55;;;;;;;11.85;64.84;98867.31;5124300;28;20044;-60
2023/03/14 04:03:25;;;;;;;6.22;1.65;;;;;;;11.84;64.76;98860.31;5122519;28;20059;-60
2023/03/14 04:05:59;;;;;;;8.35;1.77;;;;;;;11.85;64.51;98861.13;5122207;28;20047;-60
2023/03/14 04:08:27;;;;;;;5.45;1.55;;;;;;;11.83;64.66;98860.59;5118333;28;20047;-59
2023/03/14 04:10:57;;;;;;;6.15;1.92;;;;;;;11.80;64.68;98861.16;5117741;28;20040;-59
2023/03/14 04:13:27;;;;;;;4.38;1.58;;;;;;;11.82;64.78;98859.00;5113101;28;20075;-59
2023/03/14 04:15:56;;;;;;;3.53;1.40;;;;;;;11.82;64.60;98848.22;5108311;28;20075;-59
2023/03/14 04:18:25;;;;;;;3.50;1.35;;;;;;;11.80;65.09;98859.25;5115106;28;20464;-59
2023/03/14 04:20:54;;;;;;;7.90;1.98;;;;;;;11.77;65.08;98859.81;5115619;28;20040;-59
2023/03/14 04:23:23;;;;;;;6.65;2.28;;;;;;;11.79;64.93;98857.66;5114726;28;20122;-60
2023/03/14 04:25:52;;;;;;;6.97;1.17;;;;;;;11.79;65.19;98857.66;5122425;28;20050;-59
2023/03/14 04:28:20;;;;;;;6.43;1.65;;;;;;;11.78;65.26;98855.25;5107549;28;20062;-59
2023/03/14 04:30:49;;;;;;;3.95;1.20;;;;;;;11.78;65.19;98849.88;5118044;28;20053;-60
2023/03/14 04:33:17;;;;;;;4.63;1.40;;;;;;;11.75;65.66;98848.50;5118911;28;20047;-59
2023/03/14 04:35:45;;;;;;;4.05;1.83;;;;;;;11.77;65.69;98848.22;5122337;28;20053;-59
2023/03/14 04:38:14;;;;;;;2.97;1.08;;;;;;;11.76;65.30;98846.63;5110783;28;20055;-59
2023/03/14 04:40:42;;;;;;;4.30;1.10;;;;;;;11.74;65.70;98846.91;5123368;28;20050;-59
2023/03/14 04:43:11;;;;;;;2.28;0.95;;;;;;;11.72;66.03;98832.91;5119682;28;20103;-59
2023/03/14 04:45:42;;;;;;;6.22;1.52;;;;;;;11.70;65.71;98838.56;5115299;28;20051;-59
2023/03/14 04:48:12;;;;;;;4.15;1.10;;;;;;;11.70;65.73;98838.56;5121573;28;20048;-59
2023/03/14 04:50:40;;;;;;;3.55;1.00;;;;;;;11.69;65.60;98836.16;5111807;28;20099;-60
2023/03/14 04:53:08;;;;;;;3.67;1.42;;;;;;;11.68;66.13;98846.13;5104641;28;20072;-59
2023/03/14 04:55:36;;;;;;;3.22;1.50;;;;;;;11.67;66.00;98844.50;5118313;28;20153;-60
2023/03/14 04:58:03;;;;;;;5.70;1.42;;;;;;;11.67;66.35;98849.88;5123754;28;20047;-59
2023/03/14 05:00:31;;;;;;;5.68;1.60;;;;;;;11.67;66.49;98841.00;5122526;28;20043;-59
2023/03/14 05:02:59;;;;;;;3.80;1.38;;;;;;;11.66;66.44;98842.91;5121417;28;21582;-58
2023/03/14 05:05:28;;;;;;;2.53;1.50;;;;;;;11.65;66.43;98838.59;5107953;28;20073;-60
2023/03/14 05:07:56;;;;;;;5.63;1.35;;;;;;;11.65;66.72;98841.28;5102846;28;20059;-59
2023/03/14 05:10:25;;;;;;;4.03;1.20;;;;;;;11.64;66.63;98839.69;5118556;28;20086;-59
2023/03/14 05:12:53;;;;;;;3.40;1.45;;;;;;;11.63;66.69;98832.69;5123174;28;20052;-59
2023/03/14 05:15:20;;;;;;;2.33;1.00;;;;;;;11.63;66.58;98834.56;5113092;28;20047;-59
2023/03/14 05:17:49;;;;;;;3.83;1.13;;;;;;;11.62;66.77;98835.66;5113020;28;20062;-59
2023/03/14 05:20:16;;;;;;;3.40;1.23;;;;;;;11.61;66.76;98834.84;5116579;27;20051;-59
2023/03/14 05:22:45;;;;;;;3.20;0.98;;;;;;;11.62;66.75;98830.28;5127019;28;20079;-60
2023/03/14 05:25:13;;;;;;;2.55;1.10;;;;;;;11.60;67.01;98827.88;5113435;27;20047;-60
2023/03/14 05:27:41;;;;;;;7.07;1.83;;;;;;;11.59;66.96;98831.63;5117912;28;20046;-59
2023/03/14 05:30:10;;;;;;;3.83;1.45;;;;;;;11.59;67.21;98826.25;5126984;28;20142;-59
2023/03/14 05:32:38;;;;;;;4.82;1.92;;;;;;;11.59;66.90;98831.63;5124004;27;20091;-59
2023/03/14 05:35:06;;;;;;;4.55;1.35;;;;;;;11.57;67.46;98827.63;5125745;27;20401;-59
2023/03/14 05:37:34;;;;;;;3.53;1.30;;;;;;;11.58;67.45;98824.66;5124365;28;20035;-60
2023/03/14 05:40:04;;;;;;;3.90;1.65;;;;;;;11.58;67.41;98824.66;5127288;28;20040;-60
2023/03/14 05:42:33;;;;;;;3.72;1.10;;;;;;;11.57;67.12;98814.97;5114691;27;20131;-60
2023/03/14 05:45:01;;;;;;;3.53;1.30;;;;;;;11.57;67.45;98812.28;5122175;28;20047;-61
2023/03/14 05:47:29;;;;;;;5.55;1.30;;;;;;;11.56;67.34;98813.38;5125697;27;20098;-60
2023/03/14 05:49:57;;;;;;;6.93;1.50;;;;;;;11.55;67.46;98811.75;5121315;27;20048;-60
2023/03/14 05:52:24;;;;;;;2.92;1.10;;;;;;;11.55;67.61;98817.13;5122293;27;20047;-60
2023/03/14 05:54:52;;;;;;;6.90;1.52;;;;;;;11.55;67.55;98817.13;5123616;28;20044;-60
2023/03/14 05:57:21;;;;;;;4.13;1.35;;;;;;;11.56;67.60;98810.66;5127765;28;20047;-60
2023/03/14 05:59:49;;;;;;;5.35;1.50;;;;;;;11.57;67.34;98808.78;5126213;27;20067;-60
2023/03/14 06:02:17;;;;;;;3.63;1.17;;;;;;;11.57;67.66;98806.09;5126390;28;20054;-60
2023/03/14 06:04:45;;;;;;;6.63;1.85;;;;;;;11.56;67.67;98807.97;5125418;28;20044;-60
2023/03/14 06:07:12;;;;;;;3.08;1.20;;;;;;;11.54;67.99;98802.06;5123049;28;20069;-60
2023/03/14 06:09:40;;;;;;;4.70;1.15;;;;;;;11.54;67.90;98804.75;5110672;27;20076;-62
2023/03/14 06:12:08;;;;;;;3.45;0.95;;;;;;;11.54;68.02;98807.47;5121095;28;20053;-60
2023/03/14 06:14:37;;;;;;;4.80;1.38;;;;;;;11.55;68.02;98811.75;5129658;27;20051;-58
2023/03/14 06:17:05;;;;;;;3.22;1.30;;;;;;;11.55;68.06;98811.75;5119455;28;20221;-58
2023/03/14 06:19:32;;;;;;;2.75;1.17;;;;;;;11.55;67.77;98808.25;5127477;28;20043;-60
2023/03/14 06:22:00;;;;;;;2.83;1.48;;;;;;;11.55;68.09;98810.94;5118909;27;20067;-59
2023/03/14 06:24:29;;;;;;;3.17;1.60;;;;;;;11.55;68.36;98806.38;5126093;28;20062;-59
2023/03/14 06:26:57;;;;;;;4.00;1.45;;;;;;;11.56;67.97;98813.38;5116896;28;20082;-59
2023/03/14 06:29:25;;;;;;;3.08;1.45;;;;;;;11.53;68.33;98811.22;5122492;28;20056;-59
2023/03/14 06:31:54;;;;;;;4.38;1.50;;;;;;;11.51;68.53;98810.69;5115972;28;20048;-59
2023/03/14 06:34:22;;;;;;;3.53;1.35;;;;;;;11.53;68.47;98805.84;5114561;28;20059;-59
2023/03/14 06:36:49;;;;;;;8.10;2.10;;;;;;;11.50;68.46;98814.47;5121528;28;20131;-59
2023/03/14 06:39:17;;;;;;;3.80;1.25;;;;;;;11.51;68.36;98821.47;5122025;27;20052;-59
2023/03/14 06:41:45;;;;;;;2.85;1.48;;;;;;;11.52;68.13;98817.69;5123098;28;20135;-59
2023/03/14 06:44:12;;;;;;;3.33;1.33;;;;;;;11.52;68.22;98816.88;4763832;28;10000393;-59
2023/03/14 06:46:40;;;;;;;1.92;1.05;;;;;;;11.50;68.39;98817.16;5122787;28;20200;-59
2023/03/14 06:49:09;;;;;;;4.60;2.22;;;;;;;11.50;68.61;98824.44;5119060;28;20572;-59
2023/03/14 06:51:37;;;;;;;2.33;1.20;;;;;;;11.49;68.84;98823.63;5109092;28;20043;-61
2023/03/14 06:54:05;;;;;;;1.90;1.20;;;;;;;11.55;68.18;98824.41;5117212;27;20043;-59
2023/03/14 06:56:33;;;;;;;3.30;1.30;;;;;;;11.52;68.38;98816.88;5122101;28;20539;-59
2023/03/14 06:59:00;;;;;;;7.50;1.70;;;;;;;11.53;68.45;98831.94;5117225;28;20048;-62
2023/03/14 07:01:30;;;;;;;3.63;1.50;;;;;;;11.52;68.15;98828.44;5121506;28;20035;-60
2023/03/14 07:03:58;;;;;;;3.08;1.88;;;;;;;11.51;68.64;98836.78;5111809;28;20055;-61
2023/03/14 07:06:29;;;;;;;3.10;1.35;;;;;;;11.50;68.38;98837.88;5120993;28;20059;-60
2023/03/14 07:08:57;;;;;;;1.83;1.10;;;;;;;11.52;68.75;98849.16;5101673;28;20060;-62
2023/03/14 07:11:25;;;;;;;4.03;1.38;;;;;;;11.52;68.73;98849.16;5112422;28;20577;-64
2023/03/14 07:13:53;;;;;;;1.85;1.20;;;;;;;11.50;68.83;98852.13;5112582;28;20103;-58
2023/03/14 07:16:21;;;;;;;3.35;1.60;;;;;;;11.49;70.06;98844.34;5120952;28;20040;-59
2023/03/14 07:18:50;;;;;;;3.08;1.38;;;;;;;11.49;69.46;98852.41;5114861;28;20051;-59
2023/03/14 07:21:17;;;;;;;3.38;1.38;;;;;;;11.50;69.21;98857.50;5121479;28;20130;-59
2023/03/14 07:23:46;;;;;;;2.75;1.40;;;;;;;11.50;69.08;98856.72;5118055;28;20071;-59
2023/03/14 07:26:14;;;;;;;3.92;1.63;;;;;;;11.48;69.17;98867.75;5125401;28;20306;-59
2023/03/14 07:28:42;;;;;;;3.30;1.27;;;;;;;11.47;69.49;98868.81;5114053;28;20055;-58
2023/03/14 07:31:10;;;;;;;3.38;1.58;;;;;;;11.40;69.32;98863.75;5117405;28;20104;-58
2023/03/14 07:33:38;;;;;;;5.45;2.42;;;;;;;11.47;69.53;98882.28;5115536;28;20047;-59
2023/03/14 07:36:06;;;;;;;3.45;1.60;;;;;;;11.48;69.54;98901.91;5111227;28;20077;-59
2023/03/14 07:38:34;;;;;;;3.03;1.25;;;;;;;11.57;69.21;98871.47;5120300;28;20047;-60
2023/03/14 07:41:06;;;;;;;4.35;1.58;;;;;;;11.49;70.13;98962.69;5122756;28;20050;-58
2023/03/14 07:43:34;;;;;;;2.40;1.27;;;;;;;11.33;69.08;98986.94;5116241;28;20047;-58
2023/03/14 07:46:02;;;;;;;1.48;0.90;;;;;;;11.19;67.33;99020.03;5117863;28;20052;-58
2023/03/14 07:48:30;;;;;;;0.82;0.52;;;;;;;11.06;67.27;99016.00;5111558;27;20077;-58
2023/03/14 07:50:57;;;;;;;0.88;0.60;;;;;;;11.01;67.64;99038.31;5112855;27;20592;-59
2023/03/14 07:53:25;;;;;;;1.88;0.70;;;;;;;10.91;67.34;99043.69;5121701;28;20058;-59
2023/03/14 07:55:54;;;;;;;2.15;0.90;;;;;;;10.89;67.69;99053.09;5122341;28;20052;-59
2023/03/14 07:58:23;;;;;;;1.10;0.50;;;;;;;10.86;67.50;99049.06;5124723;28;20051;-59
2023/03/14 08:00:52;;;;;;;1.42;0.63;;;;;;;10.89;67.75;99063.84;5115643;27;20047;-58
2023/03/14 08:03:20;;;;;;;3.97;1.20;;;;;;;10.86;67.50;99062.50;5121188;28;20048;-59
2023/03/14 08:05:50;;;;;;;2.67;1.00;;;;;;;10.85;67.57;99068.16;5121384;28;20046;-58
2023/03/14 08:08:18;;;;;;;4.13;0.82;;;;;;;10.85;67.37;99090.47;5123935;28;20063;-58
2023/03/14 08:10:47;;;;;;;1.13;0.70;;;;;;;10.86;67.62;99088.56;5124373;28;20051;-59
2023/03/14 08:13:15;;;;;;;3.30;1.20;;;;;;;10.85;67.49;99100.41;5117345;28;20079;-59
2023/03/14 08:15:48;;;;;;;2.17;1.13;;;;;;;10.85;67.43;99111.16;5114024;28;20062;-58
2023/03/14 08:18:16;;;;;;;1.23;0.85;;;;;;;10.83;67.69;99110.59;5115486;28;20101;-58
2023/03/14 08:20:43;;;;;;;2.78;1.00;;;;;;;10.83;67.46;99127.53;5114540;28;20047;-59
2023/03/14 08:23:11;;;;;;;1.90;1.00;;;;;;;10.82;67.61;99128.59;5116896;28;20048;-58
2023/03/14 08:25:39;;;;;;;1.45;0.95;;;;;;;10.79;67.63;99150.63;5113297;28;20111;-59
2023/03/14 08:28:07;;;;;;;1.90;0.93;;;;;;;10.77;67.41;99156.28;5116791;28;20107;-59
2023/03/14 08:30:35;;;;;;;5.95;1.23;;;;;;;10.76;67.29;99161.91;5109105;28;20098;-59
2023/03/14 08:33:04;;;;;;;3.40;1.08;;;;;;;10.72;67.37;99179.63;5115119;28;20075;-58
2023/03/14 08:35:32;;;;;;;3.67;0.95;;;;;;;10.70;67.16;99182.59;5118184;28;20113;-58
2023/03/14 08:38:00;;;;;;;3.40;1.00;;;;;;;10.67;67.20;99187.69;5105110;27;20055;-58
2023/03/14 08:40:28;;;;;;;2.40;1.13;;;;;;;10.67;67.31;99206.47;5118959;28;20054;-59
2023/03/14 08:42:56;;;;;;;2.47;0.80;;;;;;;10.65;66.73;99220.19;5111497;28;20122;-58
2023/03/14 08:45:24;;;;;;;3.80;1.15;;;;;;;10.59;66.84;99223.91;5120359;28;20047;-59
2023/03/14 08:47:52;;;;;;;4.38;0.90;;;;;;;10.53;66.70;99248.31;5117602;28;20080;-59
2023/03/14 08:50:23;;;;;;;2.03;1.05;;;;;;;10.52;66.83;99235.97;5114436;28;20115;-59
2023/03/14 08:52:50;;;;;;;5.13;1.10;;;;;;;10.53;66.85;99248.31;5110217;28;20056;-59
2023/03/14 08:55:18;;;;;;;4.90;1.10;;;;;;;10.56;66.88;99250.50;5114194;28;20096;-59
2023/03/14 08:57:46;;;;;;;1.67;0.70;;;;;;;10.58;66.86;99261.78;5119181;28;20047;-58
2023/03/14 09:00:15;;;;;;;3.42;0.95;;;;;;;10.61;66.91;99270.13;5116957;28;20198;-59
2023/03/14 09:02:43;;;;;;;2.67;1.05;;;;;;;10.65;66.99;99281.16;5110504;28;20054;-58
2023/03/14 09:05:12;;;;;;;3.50;1.40;;;;;;;10.74;66.84;99288.47;5121078;28;20039;-59
2023/03/14 09:07:42;;;;;;;2.63;1.00;;;;;;;10.90;66.41;99296.59;5114390;28;20424;-59
2023/03/14 09:10:11;;;;;;;2.92;0.98;;;;;;;11.02;65.66;99300.69;5112121;28;20183;-59
2023/03/14 09:12:38;;;;;;;4.78;0.98;;;;;;;11.20;65.12;99315.56;5115070;28;20135;-58
2023/03/14 09:15:07;;;;;;;2.10;1.08;;;;;;;11.32;64.76;99329.59;5119069;28;20512;-60
2023/03/14 09:17:35;;;;;;;5.10;1.30;;;;;;;11.47;64.29;99325.31;5117081;28;20043;-59
2023/03/14 09:20:06;;;;;;;4.97;1.20;;;;;;;11.61;63.77;99335.31;5119209;28;20067;-60
2023/03/14 09:22:35;;;;;;;5.25;1.48;;;;;;;11.77;63.64;99340.75;5116163;28;20048;-59
2023/03/14 09:25:05;;;;;;;3.53;1.10;;;;;;;11.92;62.90;99344.28;5115294;28;20059;-59
2023/03/14 09:27:33;;;;;;;3.60;1.20;;;;;;;12.05;62.26;99357.22;5110637;28;20052;-59
2023/03/14 09:30:01;;;;;;;3.05;1.35;;;;;;;12.14;61.76;99359.38;5110906;28;20062;-59
2023/03/14 09:32:29;;;;;;;1.75;0.88;;;;;;;12.18;61.93;99371.22;5116682;28;20313;-59
2023/03/14 09:34:56;;;;;;;6.28;1.45;;;;;;;12.25;61.76;99374.44;5118161;28;20909;-59
2023/03/14 09:37:24;;;;;;;2.97;1.13;;;;;;;12.24;61.28;99380.91;5116744;28;20075;-59
2023/03/14 09:39:52;;;;;;;2.50;1.13;;;;;;;12.15;61.19;99383.34;5120178;28;20066;-59
2023/03/14 09:42:24;;;;;;;1.77;0.73;;;;;;;12.17;61.53;99405.41;5119743;28;20044;-58
2023/03/14 09:44:57;;;;;;;6.97;1.08;;;;;;;12.24;61.56;99422.13;5120792;28;20067;-58
2023/03/14 09:47:25;;;;;;;3.88;0.98;;;;;;;12.27;61.34;99429.69;5121240;28;20139;-58
2023/03/14 09:49:53;;;;;;;2.80;1.00;;;;;;;12.03;60.66;99452.81;5109644;28;20046;-59
2023/03/14 09:52:25;;;;;;;3.10;0.70;;;;;;;11.87;60.97;99470.00;5108259;28;20119;-58
2023/03/14 09:54:58;;;;;;;4.22;0.82;;;;;;;11.69;60.94;99492.78;5116761;28;20052;-59
2023/03/14 09:57:28;;;;;;;2.45;0.60;;;;;;;11.45;60.87;99505.84;5115302;28;20048;-59
2023/03/14 10:00:04;;;;;;;1.95;0.50;;;;;;;11.05;61.22;99507.19;5115620;28;20078;-58
2023/03/14 10:02:35;;;;;;;2.85;1.40;;;;;;;10.76;61.07;99547.00;5118499;28;20581;-59
2023/03/14 10:05:14;;;;;;;2.53;0.50;;;;;;;10.55;61.00;99544.34;5122809;28;20048;-60
2023/03/14 10:07:42;;;;;;;1.80;1.00;;;;;;;10.39;61.21;99554.97;5120398;27;20048;-59
2023/03/14 10:10:14;;;;;;;5.20;0.88;;;;;;;10.36;60.81;99581.53;5121976;28;20047;-59
2023/03/14 10:12:47;;;;;;;3.33;0.80;;;;;;;10.34;60.95;99587.16;5120891;28;20050;-59
2023/03/14 10:15:23;;;;;;;3.03;0.70;;;;;;;10.36;60.65;99595.75;5123478;28;20142;-59
2023/03/14 10:17:52;;;;;;;4.72;0.77;;;;;;;10.35;60.34;99602.19;5117227;28;20043;-59
2023/03/14 10:20:39;;;;;;;5.32;1.00;;;;;;;10.35;60.39;99618.31;5126004;28;20396;-59
2023/03/14 10:23:20;;;;;;;4.72;1.25;;;;;;;10.25;60.36;99631.59;5120965;27;20109;-59
2023/03/14 10:26:01;;;;;;;3.50;0.80;;;;;;;10.21;60.43;99635.84;5116717;28;20083;-60
2023/03/14 10:28:33;;;;;;;2.63;0.73;;;;;;;10.22;60.37;99664.31;5125048;28;20131;-59
2023/03/14 10:31:01;;;;;;;2.58;0.90;;;;;;;10.13;60.25;99671.16;5125602;28;20107;-59
2023/03/14 10:33:31;;;;;;;6.93;1.02;;;;;;;9.99;60.91;99684.09;5111773;28;20048;-59
2023/03/14 10:36:01;;;;;;;1.77;1.02;;;;;;;10.13;60.52;99692.63;5119756;28;20047;-59
2023/03/14 10:38:31;;;;;;;5.35;1.13;;;;;;;10.24;59.60;99697.13;5126037;28;20051;-59
2023/03/14 10:41:00;;;;;;;5.30;1.63;;;;;;;10.46;59.58;99709.72;5124624;28;20112;-59
2023/03/14 10:43:32;;;;;;;3.45;0.93;;;;;;;10.60;58.53;99708.28;5126065;28;20101;-59
2023/03/14 10:46:06;;;;;;;6.88;1.77;;;;;;;10.74;57.87;99721.09;5122075;28;20054;-58
2023/03/14 10:48:37;;;;;;;4.32;1.25;;;;;;;10.91;57.35;99726.41;5125245;28;20471;-59
2023/03/14 10:51:07;;;;;;;3.60;1.10;;;;;;;11.08;57.05;99750.53;5117528;28;20075;-59
2023/03/14 10:53:41;;;;;;;3.80;1.20;;;;;;;11.20;56.07;99750.38;5112618;28;20067;-59
2023/03/14 10:56:13;;;;;;;6.57;1.33;;;;;;;11.18;55.53;99761.41;5118825;28;20054;-59
2023/03/14 10:58:44;;;;;;;4.32;1.95;;;;;;;11.19;55.37;99762.22;5126138;28;20111;-59
2023/03/14 11:01:38;;;;;;;6.82;1.55;;;;;;;11.04;55.24;99765.53;5117209;28;20507;-60
2023/03/14 11:04:16;;;;;;;9.73;1.73;;;;;;;10.91;55.96;99796.31;5118017;28;20043;-59
2023/03/14 11:06:50;;;;;;;5.68;1.35;;;;;;;10.76;56.07;99802.28;5122404;28;20047;-59
2023/03/14 11:09:27;;;;;;;6.97;1.58;;;;;;;10.51;57.08;99830.69;5125278;28;20059;-59
2023/03/14 11:12:04;;;;;;;14.18;2.15;;;;;;;10.21;58.05;99834.53;5110914;28;20048;-59
2023/03/14 11:14:37;;;;;;;8.98;2.50;;;;;;;10.01;59.36;99847.59;5104575;28;20048;-59
2023/03/14 11:17:16;;;;;;;11.73;2.10;;;;;;;9.90;60.01;99851.97;5113137;28;20465;-59
2023/03/14 11:19:58;;;;;;;10.38;2.05;;;;;;;9.86;59.63;99858.88;5111834;27;20079;-59
2023/03/14 11:22:37;;;;;;;6.28;1.75;;;;;;;9.89;60.02;99860.28;5111461;28;20048;-59
2023/03/14 11:25:19;;;;;;;12.43;1.67;;;;;;;9.92;60.22;99871.34;5112637;28;20081;-59
2023/03/14 11:27:55;;;;;;;7.07;1.90;;;;;;;9.95;60.18;99880.78;5121482;28;20126;-58
2023/03/14 11:30:28;;;;;;;10.73;2.13;;;;;;;9.93;60.20;99896.31;5124393;28;20142;-58
2023/03/14 11:33:06;;;;;;;12.98;4.18;;;;;;;9.89;60.50;99893.28;5109498;28;20372;-59
2023/03/14 11:35:37;;;;;;;9.98;2.20;;;;;;;9.90;60.28;99899.47;5116491;28;20070;-59
2023/03/14 11:38:20;;;;;;;11.80;2.22;;;;;;;9.88;59.95;99912.31;5111672;28;20047;-59
2023/03/14 11:40:50;;;;;;;10.45;2.10;;;;;;;9.83;59.99;99901.50;5124187;28;20051;-59
2023/03/14 11:43:27;;;;;;;10.63;2.40;;;;;;;9.78;60.32;99911.06;5110527;28;20047;-60
2023/03/14 11:46:02;;;;;;;11.37;2.03;;;;;;;9.73;60.85;99927.06;5120494;28;20060;-60